Time;durP1;ratioP1;P1;durP2;ratioP2;P2;SDS_P1;SDS_P2;PMS_P1;PMS_P2;Temp;Humidity;BMP_temperature;BMP_pressure;BME280_temperature;BME280_humidity;BME280_pressure;Samples;Min_cycle;Max_cycle;Signal;HPM_P1;HPM_P2
2023/01/03 00:00:31;;;;;;;7.97;3.00;;;6.80;99.90;;;;;;5044192;28;20556;-49
2023/01/03 00:02:57;;;;;;;6.23;3.03;;;6.80;99.90;;;;;;5043871;28;20197;-50
2023/01/03 00:05:23;;;;;;;14.20;3.20;;;6.80;99.90;;;;;;5044378;28;20202;-48
2023/01/03 00:07:48;;;;;;;8.83;3.43;;;6.80;99.90;;;;;;5043569;28;20188;-49
2023/01/03 00:10:14;;;;;;;6.33;2.87;;;6.70;99.90;;;;;;5044487;28;20185;-49
2023/01/03 00:12:39;;;;;;;8.27;3.73;;;6.70;99.90;;;;;;5043667;28;20197;-48
2023/01/03 00:15:05;;;;;;;7.60;3.10;;;6.70;99.90;;;;;;5043856;28;20181;-49
2023/01/03 00:17:31;;;;;;;5.40;2.97;;;6.70;99.90;;;;;;5043778;28;20201;-50
2023/01/03 00:19:57;;;;;;;7.33;2.80;;;6.70;99.90;;;;;;5043633;28;20181;-50
2023/01/03 00:22:22;;;;;;;6.73;3.23;;;6.60;99.90;;;;;;5043523;28;20783;-48
2023/01/03 00:24:50;;;;;;;6.03;3.03;;;6.60;99.90;;;;;;5025046;28;20217;-49
2023/01/03 00:27:16;;;;;;;5.50;2.97;;;6.50;99.90;;;;;;5042644;28;20268;-51
2023/01/03 00:29:42;;;;;;;6.63;3.30;;;6.60;99.90;;;;;;5043043;28;20208;-50
2023/01/03 00:32:07;;;;;;;4.87;3.20;;;6.50;99.90;;;;;;5041529;28;20196;-48
2023/01/03 00:34:34;;;;;;;11.00;3.17;;;6.50;99.90;;;;;;5041067;28;20220;-50
2023/01/03 00:36:59;;;;;;;6.20;3.23;;;6.50;99.90;;;;;;5040936;28;20184;-48
2023/01/03 00:39:26;;;;;;;5.67;3.00;;;6.40;99.90;;;;;;5040864;28;20596;-50
2023/01/03 00:41:52;;;;;;;6.10;3.00;;;6.40;99.90;;;;;;5040024;28;20225;-50
2023/01/03 00:44:18;;;;;;;6.57;3.23;;;6.40;99.90;;;;;;5039749;28;20263;-50
2023/01/03 00:46:44;;;;;;;6.40;3.47;;;6.30;99.90;;;;;;5040549;28;20743;-51
2023/01/03 00:49:10;;;;;;;4.33;3.00;;;6.30;99.90;;;;;;5040475;28;20255;-49
2023/01/03 00:51:37;;;;;;;4.33;3.10;;;6.30;99.90;;;;;;5040283;28;20196;-49
2023/01/03 00:54:04;;;;;;;7.97;3.47;;;6.30;99.90;;;;;;5040902;28;20198;-48
2023/01/03 00:56:37;;;;;;;8.00;3.50;;;6.30;99.90;;;;;;5040097;28;20181;-50
2023/01/03 00:59:04;;;;;;;7.27;3.27;;;6.20;99.90;;;;;;5040532;28;20185;-50
2023/01/03 01:01:36;;;;;;;6.73;2.83;;;6.20;99.90;;;;;;5021715;28;20277;-50
2023/01/03 01:04:13;;;;;;;7.53;3.27;;;6.20;99.90;;;;;;5040319;28;20534;-50
2023/01/03 01:06:46;;;;;;;7.10;3.17;;;6.20;99.90;;;;;;5039703;28;20272;-50
2023/01/03 01:09:15;;;;;;;5.17;2.73;;;6.10;99.90;;;;;;5036953;28;20226;-49
2023/01/03 01:11:41;;;;;;;9.63;3.53;;;6.10;99.90;;;;;;5036013;28;20224;-49
2023/01/03 01:14:20;;;;;;;12.20;2.73;;;6.10;99.90;;;;;;5035649;28;20173;-49
2023/01/03 01:16:55;;;;;;;11.60;3.27;;;6.10;99.90;;;;;;5035663;28;20175;-50
2023/01/03 01:19:25;;;;;;;5.00;2.53;;;6.10;99.90;;;;;;5035896;28;20192;-48
2023/01/03 01:21:51;;;;;;;6.10;3.00;;;6.10;99.90;;;;;;5018264;28;20208;-49
2023/01/03 01:24:17;;;;;;;3.73;2.77;;;6.10;99.90;;;;;;5035276;28;20226;-49
2023/01/03 01:26:42;;;;;;;7.77;2.60;;;6.10;99.90;;;;;;5035354;28;20180;-47
2023/01/03 01:29:11;;;;;;;5.37;2.60;;;6.10;99.90;;;;;;5035566;28;20633;-49
2023/01/03 01:31:37;;;;;;;5.90;2.63;;;6.00;99.90;;;;;;5035223;28;20192;-48
2023/01/03 01:34:03;;;;;;;7.23;2.50;;;6.00;99.90;;;;;;5035171;28;20281;-49
2023/01/03 01:36:31;;;;;;;6.70;2.50;;;6.00;99.90;;;;;;5035166;28;20263;-49
2023/01/03 01:39:08;;;;;;;9.53;2.70;;;6.00;99.90;;;;;;5035053;28;20185;-49
2023/01/03 01:44:53;;;;;;;6.23;2.20;;;5.90;99.90;;;;;;5035322;28;20245;-48
2023/01/03 01:47:44;;;;;;;10.37;2.47;;;5.80;99.90;;;;;;5034817;28;20181;-49
2023/01/03 01:50:22;;;;;;;6.67;2.73;;;5.70;99.90;;;;;;5035120;28;20633;-48
2023/01/03 01:53:04;;;;;;;4.93;2.60;;;5.70;99.90;;;;;;5034708;28;20196;-50
2023/01/03 01:55:39;;;;;;;4.33;2.63;;;5.60;99.90;;;;;;5034003;28;20284;-48
2023/01/03 01:58:06;;;;;;;5.80;2.50;;;5.60;99.90;;;;;;5035153;28;20180;-49
2023/01/03 02:00:33;;;;;;;6.90;2.67;;;5.50;99.90;;;;;;5034587;28;20215;-49
2023/01/03 02:02:58;;;;;;;5.23;2.53;;;5.50;99.90;;;;;;5034777;28;20212;-49
2023/01/03 02:05:25;;;;;;;5.67;2.80;;;5.40;99.90;;;;;;5034421;28;20221;-47
2023/01/03 02:07:52;;;;;;;5.13;2.50;;;5.40;99.90;;;;;;5034861;28;20185;-49
2023/01/03 02:10:27;;;;;;;6.90;3.10;;;5.40;99.90;;;;;;5034461;28;20179;-48
2023/01/03 02:13:07;;;;;;;7.60;2.87;;;5.40;99.90;;;;;;5034354;28;20202;-51
2023/01/03 02:16:24;;;;;;;6.90;2.70;;;5.30;99.90;;;;;;5034912;28;20184;-50
2023/01/03 02:19:07;;;;;;;3.67;2.50;;;5.20;99.90;;;;;;4985155;28;20587;-49
2023/01/03 02:22:11;;;;;;;4.50;2.93;;;5.20;99.90;;;;;;5034583;28;20216;-48
2023/01/03 02:25:07;;;;;;;3.97;2.77;;;5.10;99.90;;;;;;5033853;28;20218;-49
2023/01/03 02:28:14;;;;;;;12.10;3.20;;;5.00;99.90;;;;;;5034412;28;20179;-49
2023/01/03 02:30:44;;;;;;;4.97;2.37;;;4.90;99.90;;;;;;5033505;28;20271;-48
2023/01/03 02:33:17;;;;;;;4.00;2.50;;;4.90;99.90;;;;;;5034504;28;20671;-49
2023/01/03 02:35:54;;;;;;;6.77;2.73;;;4.80;99.90;;;;;;5034369;28;20179;-49
2023/01/03 02:38:33;;;;;;;4.87;2.30;;;4.70;99.90;;;;;;5034198;28;20163;-49
2023/01/03 02:41:06;;;;;;;5.30;2.63;;;4.70;99.90;;;;;;5033762;28;20248;-49
2023/01/03 02:44:12;;;;;;;5.67;3.00;;;4.60;99.90;;;;;;5034371;28;20183;-49
2023/01/03 02:46:47;;;;;;;7.23;3.80;;;4.60;99.90;;;;;;5029760;28;20239;-48
2023/01/03 02:49:28;;;;;;;5.03;2.63;;;4.50;99.90;;;;;;5016154;28;20217;-47
2023/01/03 02:52:01;;;;;;;6.43;3.00;;;4.50;99.90;;;;;;5034810;28;20568;-48
2023/01/03 02:54:52;;;;;;;4.43;2.73;;;4.40;99.90;;;;;;5034150;28;20216;-49
2023/01/03 02:57:23;;;;;;;6.00;2.80;;;4.30;99.90;;;;;;5015933;28;20211;-48
2023/01/03 03:00:13;;;;;;;6.87;3.30;;;4.30;99.90;;;;;;5033766;28;20172;-49
2023/01/03 03:02:44;;;;;;;6.37;3.07;;;4.20;99.90;;;;;;5033957;28;20210;-48
2023/01/03 03:05:18;;;;;;;7.10;3.27;;;4.20;99.90;;;;;;5033751;28;20564;-48
2023/01/03 03:07:44;;;;;;;8.23;2.60;;;4.20;99.90;;;;;;5033862;28;20261;-48
2023/01/03 03:13:13;;;;;;;5.67;2.93;;;4.10;99.90;;;;;;5034376;28;20578;-49
2023/01/03 03:16:01;;;;;;;4.97;3.30;;;4.10;99.90;;;;;;5033426;28;20224;-51
2023/01/03 03:18:52;;;;;;;5.40;3.43;;;4.00;99.90;;;;;;5033467;28;20179;-49
2023/01/03 03:24:48;;;;;;;5.10;3.20;;;4.00;99.90;;;;;;5034111;28;20182;-50
2023/01/03 03:28:33;;;;;;;6.53;3.23;;;4.00;99.90;;;;;;5033270;28;20199;-50
2023/01/03 03:29:55;;;;;;;8.00;3.37;;;3.90;99.90;;;;;;5033714;28;20187;-48
2023/01/03 03:32:25;;;;;;;7.97;3.43;;;3.90;99.90;;;;;;5033939;28;20208;-49
2023/01/03 03:34:53;;;;;;;6.00;3.63;;;3.80;99.90;;;;;;5033969;28;20533;-48
2023/01/03 03:37:23;;;;;;;8.03;3.17;;;3.70;99.90;;;;;;5034240;28;20193;-48
2023/01/03 03:46:04;;;;;;;4.87;3.30;;;3.70;99.90;;;;;;4993581;28;20268;-48
2023/01/03 03:51:35;;;;;;;10.13;3.37;;;3.70;99.90;;;;;;5013774;28;20205;-48
2023/01/03 03:54:06;;;;;;;5.23;3.20;;;3.60;99.90;;;;;;5013449;28;20184;-49
2023/01/03 03:56:34;;;;;;;6.13;3.40;;;3.70;99.90;;;;;;5013805;28;20167;-50
2023/01/03 03:59:07;;;;;;;6.57;3.10;;;3.60;99.90;;;;;;5013402;28;20210;-50
2023/01/03 04:01:35;;;;;;;5.07;3.53;;;3.60;99.90;;;;;;5013410;28;20734;-49
2023/01/03 04:04:17;;;;;;;9.13;3.37;;;3.50;99.90;;;;;;5013916;28;20187;-50
2023/01/03 04:06:49;;;;;;;5.50;3.43;;;3.50;99.90;;;;;;5013220;28;20179;-49
2023/01/03 04:09:15;;;;;;;5.93;3.47;;;3.50;99.90;;;;;;5013485;28;20191;-49
2023/01/03 04:11:41;;;;;;;4.90;3.40;;;3.50;99.90;;;;;;5013416;28;20210;-48
2023/01/03 04:14:07;;;;;;;5.57;3.20;;;3.50;99.90;;;;;;5013479;28;20549;-49
2023/01/03 04:16:33;;;;;;;6.40;4.07;;;3.50;99.90;;;;;;5013407;28;20186;-48
2023/01/03 04:18:58;;;;;;;7.00;3.73;;;3.50;99.90;;;;;;5014486;28;20195;-47
2023/01/03 04:21:24;;;;;;;5.67;3.50;;;3.50;99.90;;;;;;5016755;28;20217;-48
2023/01/03 04:23:49;;;;;;;5.37;3.20;;;3.40;99.90;;;;;;5016701;28;20187;-49
2023/01/03 04:26:15;;;;;;;9.37;3.67;;;3.40;99.90;;;;;;5016960;28;20218;-49
2023/01/03 04:28:41;;;;;;;7.73;3.67;;;3.40;99.90;;;;;;5016622;28;20182;-49
2023/01/03 04:31:06;;;;;;;5.60;3.30;;;3.40;99.90;;;;;;5016786;28;20737;-48
2023/01/03 04:33:32;;;;;;;8.70;3.90;;;3.40;99.90;;;;;;5016582;28;20178;-47
2023/01/03 04:35:57;;;;;;;7.00;3.30;;;3.40;99.90;;;;;;5017132;28;20623;-49
2023/01/03 04:38:23;;;;;;;8.53;4.07;;;3.40;99.90;;;;;;5016697;28;20537;-48
2023/01/03 04:40:48;;;;;;;4.30;3.23;;;3.40;99.90;;;;;;5023187;28;20201;-49
2023/01/03 04:45:58;;;;;;;5.63;3.57;;;3.30;99.90;;;;;;5036409;28;20284;-50
2023/01/03 04:48:24;;;;;;;8.40;3.57;;;3.30;99.90;;;;;;5036001;28;20204;-50
2023/01/03 04:50:54;;;;;;;6.23;3.70;;;3.40;99.90;;;;;;5035927;28;20169;-50
2023/01/03 04:53:21;;;;;;;6.47;3.87;;;3.30;99.90;;;;;;5035941;28;20268;-51
2023/01/03 04:55:49;;;;;;;10.93;3.60;;;3.40;99.90;;;;;;5035733;28;20181;-50
2023/01/03 04:58:15;;;;;;;6.70;3.80;;;3.40;99.90;;;;;;5036000;28;20173;-49
2023/01/03 05:00:40;;;;;;;4.63;3.30;;;3.40;99.90;;;;;;5035865;28;20185;-50
2023/01/03 05:03:06;;;;;;;4.67;3.27;;;3.40;99.90;;;;;;5035840;28;20188;-50
2023/01/03 05:05:32;;;;;;;9.57;3.60;;;3.40;99.90;;;;;;5035592;28;20292;-50
2023/01/03 05:07:57;;;;;;;6.60;3.90;;;3.40;99.90;;;;;;5035603;28;20198;-50
2023/01/03 05:10:23;;;;;;;4.47;3.27;;;3.40;99.90;;;;;;5035609;28;20184;-49
2023/01/03 05:12:58;;;;;;;4.60;3.53;;;3.40;99.90;;;;;;5035748;28;20198;-49
2023/01/03 05:15:28;;;;;;;7.20;3.27;;;3.40;99.90;;;;;;5036178;28;20174;-50
2023/01/03 05:17:53;;;;;;;6.70;3.60;;;3.40;99.90;;;;;;5035459;28;20226;-49
2023/01/03 05:25:50;;;;;;;3.80;3.20;;;3.40;99.90;;;;;;5035770;28;20204;-50
2023/01/03 05:28:18;;;;;;;5.80;3.40;;;3.40;99.90;;;;;;5035799;28;20235;-50
2023/01/03 05:30:44;;;;;;;6.80;3.83;;;3.40;99.90;;;;;;5034576;28;20223;-51
2023/01/03 05:33:09;;;;;;;4.13;3.10;;;3.30;99.90;;;;;;5018246;28;20272;-49
2023/01/03 05:35:35;;;;;;;8.87;3.20;;;3.30;99.90;;;;;;5035314;28;20184;-49
2023/01/03 05:38:00;;;;;;;7.23;3.40;;;3.30;99.90;;;;;;5035285;28;20173;-49
2023/01/03 05:40:26;;;;;;;4.63;3.10;;;3.20;99.90;;;;;;5035325;28;20193;-49
2023/01/03 05:42:52;;;;;;;7.57;2.97;;;3.20;99.90;;;;;;5034813;28;20207;-49
2023/01/03 05:45:18;;;;;;;6.10;3.03;;;3.20;99.90;;;;;;5034777;28;20201;-49
2023/01/03 05:47:43;;;;;;;4.37;3.07;;;3.10;99.90;;;;;;5035277;28;20192;-49
2023/01/03 05:50:09;;;;;;;9.90;3.30;;;3.10;99.90;;;;;;5034738;28;20178;-50
2023/01/03 05:52:35;;;;;;;5.43;3.33;;;3.10;99.90;;;;;;5034709;28;20231;-49
2023/01/03 05:55:00;;;;;;;8.80;3.67;;;3.10;99.90;;;;;;5035058;28;20609;-50
2023/01/03 05:57:26;;;;;;;4.40;3.23;;;3.10;99.90;;;;;;5034565;28;20181;-50
2023/01/03 05:59:51;;;;;;;4.30;2.93;;;3.10;99.90;;;;;;5034719;28;20256;-49
2023/01/03 06:02:17;;;;;;;4.30;2.73;;;3.10;99.90;;;;;;5034626;28;20200;-49
2023/01/03 06:04:42;;;;;;;6.03;3.00;;;3.10;99.90;;;;;;5034818;28;20204;-49
2023/01/03 06:07:08;;;;;;;5.00;3.20;;;3.20;99.90;;;;;;5034500;28;20268;-49
2023/01/03 06:09:33;;;;;;;5.17;3.17;;;3.10;99.90;;;;;;5034485;28;20176;-49
2023/01/03 06:11:59;;;;;;;6.80;3.43;;;3.20;99.90;;;;;;5034782;28;20197;-50
2023/01/03 06:14:24;;;;;;;7.50;3.50;;;3.20;99.90;;;;;;5034607;28;20204;-49
2023/01/03 06:19:34;;;;;;;5.77;3.13;;;3.30;99.90;;;;;;5034350;28;20173;-50
2023/01/03 06:22:00;;;;;;;9.03;3.70;;;3.40;99.90;;;;;;5016408;28;20193;-50
2023/01/03 06:24:25;;;;;;;5.53;3.50;;;3.40;99.90;;;;;;5034439;28;20177;-49
2023/01/03 06:26:51;;;;;;;4.97;3.30;;;3.50;99.90;;;;;;5034037;28;20188;-50
2023/01/03 06:29:16;;;;;;;4.87;3.33;;;3.50;99.90;;;;;;5034254;28;20165;-48
2023/01/03 06:31:42;;;;;;;9.43;3.53;;;3.50;99.90;;;;;;5034137;28;20197;-48
2023/01/03 06:34:07;;;;;;;6.63;3.50;;;3.60;99.90;;;;;;5034132;28;20209;-49
2023/01/03 06:36:33;;;;;;;8.30;3.70;;;3.60;99.90;;;;;;5033967;28;20230;-49
2023/01/03 06:38:59;;;;;;;5.40;3.17;;;3.60;99.90;;;;;;5034053;28;20181;-49
2023/01/03 06:41:25;;;;;;;4.80;3.40;;;3.70;99.90;;;;;;5033483;28;20248;-50
2023/01/03 06:43:52;;;;;;;5.53;3.17;;;3.70;99.90;;;;;;5033580;28;20181;-50
2023/01/03 06:54:34;;;;;;;7.50;2.87;;;3.70;99.90;;;;;;5033956;28;20539;-49
2023/01/03 06:56:59;;;;;;;4.73;3.00;;;3.70;99.90;;;;;;5033516;28;20208;-51
2023/01/03 06:59:25;;;;;;;7.97;3.50;;;3.70;99.90;;;;;;5033780;28;20184;-50
2023/01/03 07:01:52;;;;;;;10.63;3.23;;;3.70;99.90;;;;;;5033686;28;20259;-50
2023/01/03 07:04:19;;;;;;;5.57;3.13;;;3.70;99.90;;;;;;5034024;28;20538;-49
2023/01/03 07:06:44;;;;;;;12.70;3.23;;;3.60;99.90;;;;;;5033306;28;20259;-49
2023/01/03 07:09:11;;;;;;;8.93;3.17;;;3.70;99.90;;;;;;5033731;28;20237;-49
2023/01/03 07:11:37;;;;;;;7.30;3.10;;;3.70;99.90;;;;;;5033712;28;20196;-48
2023/01/03 07:14:04;;;;;;;12.70;2.70;;;3.80;99.90;;;;;;5033397;28;20550;-49
2023/01/03 07:16:33;;;;;;;3.43;2.80;;;4.00;99.90;;;;;;5033504;28;20184;-48
2023/01/03 07:18:59;;;;;;;9.43;3.30;;;4.10;99.90;;;;;;5033180;28;20231;-49
2023/01/03 07:21:27;;;;;;;7.80;3.37;;;4.20;99.90;;;;;;5033151;28;20552;-49
2023/01/03 07:23:54;;;;;;;6.50;3.67;;;4.30;99.90;;;;;;5033534;28;20210;-49
2023/01/03 07:26:20;;;;;;;4.80;3.27;;;4.30;99.90;;;;;;5033483;28;20223;-49
2023/01/03 07:28:46;;;;;;;5.47;3.40;;;4.30;99.90;;;;;;5033419;28;20264;-48
2023/01/03 07:31:11;;;;;;;3.53;3.00;;;4.30;99.90;;;;;;5033250;28;20201;-49
2023/01/03 07:33:38;;;;;;;7.33;3.53;;;4.30;99.90;;;;;;5033638;28;20187;-48
2023/01/03 07:36:09;;;;;;;8.03;3.60;;;4.30;99.90;;;;;;5033392;28;20275;-51
2023/01/03 07:38:35;;;;;;;7.83;3.80;;;4.30;99.90;;;;;;5033542;28;20191;-49
2023/01/03 07:41:02;;;;;;;7.37;3.80;;;4.40;99.90;;;;;;5033094;28;20221;-49
2023/01/03 07:43:37;;;;;;;8.17;4.20;;;4.40;99.90;;;;;;5033114;28;20543;-50
2023/01/03 07:46:14;;;;;;;6.60;3.67;;;4.40;99.90;;;;;;5033265;28;20185;-48
2023/01/03 07:48:40;;;;;;;10.30;4.17;;;4.40;99.90;;;;;;5031903;28;20177;-46
2023/01/03 07:51:07;;;;;;;9.37;4.00;;;4.40;99.90;;;;;;5032981;28;20246;-47
2023/01/03 07:53:35;;;;;;;10.93;4.13;;;4.40;99.90;;;;;;5033636;28;20265;-47
2023/01/03 07:56:09;;;;;;;9.13;4.20;;;4.40;99.90;;;;;;5036807;28;20177;-48
2023/01/03 07:58:35;;;;;;;9.97;4.30;;;4.40;99.90;;;;;;5037156;28;20165;-47
2023/01/03 08:01:03;;;;;;;11.67;3.90;;;4.40;99.90;;;;;;5037232;28;20279;-49
2023/01/03 08:03:28;;;;;;;7.17;4.27;;;4.40;99.90;;;;;;5037041;28;20185;-49
2023/01/03 08:05:54;;;;;;;8.03;4.13;;;4.50;99.90;;;;;;5036597;28;20201;-48
2023/01/03 08:08:19;;;;;;;8.80;4.43;;;4.60;99.90;;;;;;5036934;28;20178;-47
2023/01/03 08:13:29;;;;;;;5.57;4.20;;;4.70;99.90;;;;;;5037020;28;20170;-48
2023/01/03 08:15:55;;;;;;;7.57;4.17;;;4.80;99.90;;;;;;5036690;28;20636;-50
2023/01/03 08:18:26;;;;;;;9.93;4.50;;;4.80;99.90;;;;;;5036543;28;20202;-49
2023/01/03 08:20:54;;;;;;;7.23;4.30;;;4.90;99.90;;;;;;5036727;28;20643;-48
2023/01/03 08:23:21;;;;;;;8.77;3.97;;;4.90;99.90;;;;;;5036358;28;20252;-49
2023/01/03 08:25:46;;;;;;;5.23;3.37;;;4.90;99.90;;;;;;5036248;28;20213;-48
2023/01/03 08:28:12;;;;;;;8.80;3.67;;;4.80;99.90;;;;;;5036399;28;20174;-48
2023/01/03 08:30:47;;;;;;;6.33;4.13;;;4.90;99.90;;;;;;5036412;28;20209;-49
2023/01/03 08:33:14;;;;;;;8.87;4.73;;;4.90;99.90;;;;;;5036506;28;20521;-48
2023/01/03 08:35:44;;;;;;;8.57;4.37;;;4.90;99.90;;;;;;5036088;28;20265;-50
2023/01/03 08:38:15;;;;;;;10.00;4.37;;;5.10;99.90;;;;;;5018429;28;20608;-49
2023/01/03 08:40:41;;;;;;;10.00;3.80;;;5.10;99.90;;;;;;5035971;28;20196;-49
2023/01/03 08:43:08;;;;;;;6.27;3.37;;;5.20;99.90;;;;;;5036042;28;20600;-49
2023/01/03 08:45:33;;;;;;;7.77;3.40;;;5.30;99.90;;;;;;5036443;28;20244;-48
2023/01/03 08:48:01;;;;;;;7.50;3.47;;;5.40;99.90;;;;;;5035936;28;20177;-48
2023/01/03 08:50:29;;;;;;;5.00;3.27;;;5.50;99.90;;;;;;5036127;28;20185;-50
2023/01/03 08:52:55;;;;;;;5.27;3.40;;;5.60;99.90;;;;;;5036071;28;20203;-48
2023/01/03 08:55:20;;;;;;;7.90;3.33;;;5.70;99.90;;;;;;5035675;28;20182;-46
2023/01/03 08:57:46;;;;;;;4.83;3.77;;;5.80;99.90;;;;;;5035635;28;20315;-49
2023/01/03 09:00:12;;;;;;;4.93;2.93;;;5.80;99.90;;;;;;5035765;28;20189;-48
2023/01/03 09:02:38;;;;;;;7.63;3.23;;;5.90;99.90;;;;;;5017720;28;20201;-48
2023/01/03 09:05:04;;;;;;;6.23;2.73;;;5.90;99.90;;;;;;5035413;28;20213;-47
2023/01/03 09:07:30;;;;;;;10.23;2.80;;;6.00;99.90;;;;;;5035881;28;20178;-48
2023/01/03 09:09:55;;;;;;;4.97;2.47;;;6.10;99.90;;;;;;5035926;28;20236;-47
2023/01/03 09:12:21;;;;;;;7.17;2.50;;;6.10;99.90;;;;;;5035368;28;20213;-47
2023/01/03 09:14:46;;;;;;;7.03;3.23;;;6.20;99.90;;;;;;5035792;28;20187;-48
2023/01/03 09:17:12;;;;;;;5.27;2.10;;;6.30;99.90;;;;;;5035383;28;20203;-49
2023/01/03 09:19:37;;;;;;;5.77;2.50;;;6.40;99.90;;;;;;5035635;28;20209;-48
2023/01/03 09:22:03;;;;;;;3.97;2.50;;;6.40;99.90;;;;;;5017390;28;20197;-49
2023/01/03 09:24:28;;;;;;;6.33;2.47;;;6.40;99.90;;;;;;5035420;28;20183;-48
2023/01/03 09:26:54;;;;;;;4.90;2.50;;;6.50;99.90;;;;;;5035482;28;20186;-49
2023/01/03 09:29:19;;;;;;;5.03;2.33;;;6.40;99.90;;;;;;5035202;28;20184;-49
2023/01/03 09:31:45;;;;;;;8.27;2.53;;;6.50;99.90;;;;;;5035269;28;20210;-50
2023/01/03 09:34:10;;;;;;;5.83;2.90;;;6.60;99.90;;;;;;5035220;28;20191;-49
2023/01/03 09:36:37;;;;;;;6.83;2.90;;;6.70;99.90;;;;;;5035009;28;20176;-48
2023/01/03 09:39:03;;;;;;;6.07;2.63;;;6.70;99.90;;;;;;5034921;28;20182;-50
2023/01/03 09:41:29;;;;;;;5.93;2.73;;;6.80;99.90;;;;;;5034890;28;20203;-49
2023/01/03 09:43:59;;;;;;;2.83;1.80;;;6.80;99.90;;;;;;5035164;28;20206;-49
2023/01/03 09:46:27;;;;;;;3.30;2.17;;;7.00;99.90;;;;;;5035010;28;20279;-50
2023/01/03 09:48:54;;;;;;;4.37;1.90;;;7.10;99.90;;;;;;5035077;28;20268;-50
2023/01/03 10:05:59;;;;;;;3.03;1.23;;;7.80;99.90;;;;;;5039480;28;20198;-48
2023/01/03 10:08:46;;;;;;;6.23;1.20;;;7.90;99.90;;;;;;5022416;28;20187;-48
2023/01/03 10:11:24;;;;;;;1.83;1.47;;;7.90;99.90;;;;;;5040524;28;20631;-49
2023/01/03 10:14:27;;;;;;;4.23;1.60;;;8.00;99.90;;;;;;5041468;28;20173;-49
2023/01/03 10:17:14;;;;;;;2.43;1.40;;;8.10;99.90;;;;;;5041106;28;20636;-46
2023/01/03 10:20:16;;;;;;;5.43;1.47;;;8.20;99.90;;;;;;5042462;28;20161;-48
2023/01/03 10:22:43;;;;;;;8.40;1.70;;;8.30;99.90;;;;;;5024261;28;20207;-48
2023/01/03 10:25:17;;;;;;;5.00;1.60;;;8.40;99.90;;;;;;5042268;28;20204;-49
2023/01/03 10:27:46;;;;;;;3.03;1.37;;;8.50;99.90;;;;;;5041729;28;20169;-49
2023/01/03 10:30:15;;;;;;;1.93;1.40;;;8.70;99.90;;;;;;5041549;28;20177;-49
2023/01/03 10:33:17;;;;;;;6.47;1.27;;;8.80;99.90;;;;;;5040840;28;20224;-49
2023/01/03 10:35:43;;;;;;;4.70;1.30;;;8.80;99.90;;;;;;5041403;28;20172;-49
2023/01/03 10:38:09;;;;;;;4.50;1.47;;;8.90;99.90;;;;;;5040863;28;20177;-49
2023/01/03 10:40:40;;;;;;;9.37;1.90;;;9.00;99.90;;;;;;5040357;28;20285;-50
2023/01/03 10:43:33;;;;;;;5.27;1.67;;;9.00;99.90;;;;;;5040265;28;20192;-48
2023/01/03 10:46:14;;;;;;;3.50;1.10;;;9.10;99.90;;;;;;5024265;28;20213;-50
2023/01/03 10:48:45;;;;;;;5.67;1.73;;;9.10;99.90;;;;;;5023147;28;20171;-49
2023/01/03 10:51:34;;;;;;;4.57;1.27;;;9.10;99.90;;;;;;5040382;28;20217;-48
2023/01/03 10:54:10;;;;;;;2.63;0.93;;;9.10;99.90;;;;;;5040818;28;20165;-50
2023/01/03 10:56:35;;;;;;;5.17;1.20;;;9.10;99.90;;;;;;5041142;28;20246;-48
2023/01/03 10:59:10;;;;;;;6.03;1.57;;;9.20;99.90;;;;;;5023558;28;20222;-49
2023/01/03 11:01:36;;;;;;;4.43;1.20;;;9.10;99.90;;;;;;5040956;28;20260;-49
2023/01/03 11:04:18;;;;;;;3.67;1.30;;;9.10;99.90;;;;;;5041085;28;20216;-48
2023/01/03 11:07:03;;;;;;;2.37;1.20;;;9.20;99.90;;;;;;5041374;28;20206;-48
2023/01/03 11:09:54;;;;;;;5.83;1.27;;;9.10;99.90;;;;;;5041068;28;20218;-48
2023/01/03 11:12:38;;;;;;;7.53;1.30;;;9.20;99.90;;;;;;5041022;28;20260;-49
2023/01/03 11:15:30;;;;;;;4.90;1.30;;;9.20;99.90;;;;;;5041327;28;20185;-49
2023/01/03 11:17:59;;;;;;;6.40;1.20;;;9.20;99.90;;;;;;5040526;28;20197;-50
2023/01/03 11:20:44;;;;;;;4.23;1.63;;;9.10;99.90;;;;;;5039846;28;20211;-50
2023/01/03 11:23:19;;;;;;;4.23;1.13;;;9.20;99.90;;;;;;5040711;28;20184;-49
2023/01/03 11:26:00;;;;;;;3.97;0.77;;;9.20;99.90;;;;;;5040382;28;20192;-50
2023/01/03 11:29:06;;;;;;;4.90;1.40;;;9.30;99.90;;;;;;5039962;28;20206;-49
2023/01/03 11:31:39;;;;;;;7.50;1.50;;;9.30;99.90;;;;;;5043250;28;20200;-48
2023/01/03 11:34:42;;;;;;;9.50;1.23;;;9.40;99.90;;;;;;5043121;28;20194;-49
2023/01/03 11:37:11;;;;;;;6.37;1.00;;;9.40;99.90;;;;;;5043408;28;20169;-49
2023/01/03 11:39:59;;;;;;;2.30;1.23;;;9.40;99.90;;;;;;5042527;28;20263;-49
2023/01/03 11:42:33;;;;;;;6.57;1.40;;;9.50;99.90;;;;;;5022874;28;20204;-49
2023/01/03 11:45:27;;;;;;;4.20;1.07;;;9.50;99.90;;;;;;5021246;28;20220;-49
2023/01/03 11:48:29;;;;;;;5.23;1.63;;;9.50;99.90;;;;;;5021358;28;20162;-49
2023/01/03 11:51:21;;;;;;;6.87;1.30;;;9.60;99.90;;;;;;5002945;28;20173;-49
2023/01/03 11:54:06;;;;;;;3.37;1.23;;;9.60;99.90;;;;;;5020378;28;20169;-49
2023/01/03 11:56:41;;;;;;;2.90;1.43;;;9.70;99.90;;;;;;5020476;28;20162;-49
2023/01/03 11:59:22;;;;;;;3.87;1.10;;;9.70;99.90;;;;;;5019925;28;20189;-48
2023/01/03 12:02:25;;;;;;;5.23;1.20;;;9.70;99.90;;;;;;5019023;28;20206;-49
2023/01/03 12:05:32;;;;;;;3.33;0.93;;;9.70;99.90;;;;;;5018556;28;20268;-49
2023/01/03 12:08:10;;;;;;;2.17;1.00;;;9.70;99.90;;;;;;5018746;28;20250;-50
2023/01/03 12:11:02;;;;;;;1.30;0.67;;;9.70;99.90;;;;;;5018402;28;20169;-51
2023/01/03 12:13:44;;;;;;;3.43;1.00;;;9.80;99.90;;;;;;5018287;28;20177;-50
2023/01/03 12:16:16;;;;;;;3.27;0.83;;;9.90;99.90;;;;;;5017734;28;20172;-50
2023/01/03 12:19:05;;;;;;;2.50;0.80;;;10.00;99.90;;;;;;5017754;28;20174;-49
2023/01/03 12:21:35;;;;;;;3.13;1.30;;;10.00;99.90;;;;;;5017871;28;20274;-50
2023/01/03 12:24:14;;;;;;;2.13;0.73;;;10.10;99.90;;;;;;5017005;28;20236;-49
2023/01/03 12:26:43;;;;;;;2.87;0.90;;;10.10;99.90;;;;;;5017211;28;20281;-49
2023/01/03 12:29:23;;;;;;;1.53;0.73;;;10.20;99.90;;;;;;5016465;28;20259;-49
2023/01/03 12:32:07;;;;;;;4.80;0.90;;;10.20;99.90;;;;;;5016742;28;20205;-51
2023/01/03 12:34:57;;;;;;;3.10;0.70;;;10.10;99.90;;;;;;5016504;28;20607;-50
2023/01/03 12:37:29;;;;;;;4.40;0.80;;;10.00;99.90;;;;;;5016480;28;20172;-50
2023/01/03 12:40:16;;;;;;;4.17;1.53;;;10.00;99.90;;;;;;5016206;28;20189;-51
2023/01/03 12:43:23;;;;;;;1.37;0.90;;;10.00;99.90;;;;;;4998555;28;20207;-49
2023/01/03 12:45:55;;;;;;;1.27;0.73;;;10.00;99.90;;;;;;5008603;28;20726;-51
2023/01/03 12:48:36;;;;;;;3.37;0.70;;;10.00;99.90;;;;;;5016263;28;20170;-51
2023/01/03 12:51:02;;;;;;;2.80;1.10;;;9.90;99.90;;;;;;5016740;28;20541;-50
2023/01/03 12:54:02;;;;;;;2.80;1.07;;;10.00;99.90;;;;;;5015975;28;20212;-50
2023/01/03 12:56:52;;;;;;;4.00;1.30;;;9.90;99.90;;;;;;5016474;28;20177;-49
2023/01/03 12:59:39;;;;;;;3.07;1.40;;;9.90;99.90;;;;;;5016364;28;20209;-50
2023/01/03 13:02:33;;;;;;;2.30;1.00;;;10.00;99.90;;;;;;5015843;28;20211;-50
2023/01/03 13:05:32;;;;;;;4.83;1.20;;;10.10;99.90;;;;;;5016127;28;20194;-52
2023/01/03 13:08:11;;;;;;;5.30;1.07;;;10.10;99.90;;;;;;5015999;28;20185;-51
2023/01/03 13:10:41;;;;;;;2.63;0.90;;;10.20;99.90;;;;;;5016232;28;20189;-50
2023/01/03 13:13:16;;;;;;;4.07;1.33;;;10.20;99.90;;;;;;5016227;28;20177;-50
2023/01/03 13:15:45;;;;;;;3.30;1.00;;;10.10;99.90;;;;;;5015826;28;20227;-50
2023/01/03 13:18:22;;;;;;;1.40;0.60;;;10.10;99.90;;;;;;5015718;28;20710;-50
2023/01/03 13:20:49;;;;;;;2.90;0.90;;;10.10;99.90;;;;;;5015861;28;20193;-50
2023/01/03 13:23:31;;;;;;;1.27;0.70;;;10.00;99.90;;;;;;5015918;28;20340;-51
2023/01/03 13:26:05;;;;;;;2.10;0.60;;;10.00;99.90;;;;;;5016273;28;20196;-50
2023/01/03 13:28:33;;;;;;;1.10;0.70;;;10.10;99.90;;;;;;5015479;28;20178;-51
2023/01/03 13:31:16;;;;;;;2.40;0.80;;;10.10;99.90;;;;;;5015411;28;20657;-51
2023/01/03 13:33:51;;;;;;;0.60;0.60;;;10.10;99.90;;;;;;5015528;28;20260;-50
2023/01/03 13:36:17;;;;;;;2.77;0.70;;;10.10;99.90;;;;;;5015302;28;20267;-51
2023/01/03 13:38:43;;;;;;;2.83;0.80;;;10.10;99.90;;;;;;5015729;28;20185;-51
2023/01/03 13:41:37;;;;;;;2.00;0.80;;;10.00;99.90;;;;;;5024801;28;20601;-51
2023/01/03 13:44:07;;;;;;;2.53;0.80;;;10.00;99.90;;;;;;5032457;28;20232;-50
2023/01/03 13:46:33;;;;;;;1.87;1.10;;;10.00;99.90;;;;;;5034886;28;20208;-50
2023/01/03 13:49:06;;;;;;;4.77;0.80;;;10.00;99.90;;;;;;5035019;28;20255;-50
2023/01/03 13:51:45;;;;;;;1.63;0.60;;;10.00;99.90;;;;;;5034153;28;20236;-49
2023/01/03 13:54:11;;;;;;;2.40;1.00;;;9.90;99.90;;;;;;5034927;28;20157;-49
2023/01/03 13:56:43;;;;;;;2.47;0.90;;;9.90;99.90;;;;;;5034700;28;20274;-51
2023/01/03 13:59:16;;;;;;;2.83;0.70;;;9.90;99.90;;;;;;5034644;28;20184;-50
2023/01/03 14:02:09;;;;;;;3.83;0.70;;;9.90;99.90;;;;;;5034651;28;20211;-50
2023/01/03 14:04:41;;;;;;;2.83;1.30;;;9.80;99.90;;;;;;5034954;28;20165;-51
2023/01/03 14:07:27;;;;;;;1.50;0.90;;;9.80;99.90;;;;;;5034680;28;20248;-50
2023/01/03 14:10:27;;;;;;;2.07;1.10;;;9.70;99.90;;;;;;5034790;28;20169;-51
2023/01/03 14:13:05;;;;;;;3.40;0.87;;;9.80;99.90;;;;;;5034336;28;20224;-50
2023/01/03 14:15:32;;;;;;;2.03;0.80;;;9.70;99.90;;;;;;5034636;28;20176;-50
2023/01/03 14:18:10;;;;;;;3.03;0.97;;;9.80;99.90;;;;;;5034459;28;20181;-51